ADDS METAR Data INFO
IDs: Format: Raw Decoded Include TAF

Data at: 0246 UTC 17 Jan 2018

KEET 170214Z AUTO 33008KT 8SM -SN SCT019 OVC070 M04/M07 A3050 RMK AO2 SNB0159 P0000 T10441072
KEET 170153Z AUTO 35007KT 9SM BKN018 BKN055 OVC075 M04/M07 A3051 RMK AO2 SNE52 SLP335 P0000 T10441072
KEET 170146Z AUTO 33010G15KT 6SM -SN BKN018 OVC050 M04/M07 A3050 RMK AO2 P0000 T10441072
KEET 170053Z AUTO 34008G17KT 4SM -SN FEW021 BKN050 OVC085 M04/M07 A3049 RMK AO2 SLP331 P0000 T10391072
KEET 170042Z AUTO 34007KT 9SM -SN FEW020 BKN055 OVC085 M03/M07 A3049 RMK AO2 P0000 T10331072
KEET 162353Z AUTO 33008KT 7SM -SN OVC015 M03/M06 A3047 RMK AO2 SLP324 P0000 60000 T10331056 10044 21033 53008
KEET 162326Z AUTO 34006KT 5SM -SN BR OVC015 M03/M05 A3047 RMK AO2 P0000 T10281050
KEET 162253Z AUTO 34008KT 5SM -SN BR BKN014 OVC050 M02/M04 A3047 RMK AO2 SLP321 P0000 T10221044
KEET 162236Z AUTO 33008G16KT 3SM -SN BR BKN014 OVC047 M02/M04 A3046 RMK AO2 P0000 T10221044
KEET 162227Z AUTO 33009G14KT 3SM -SN BR SCT012 BKN040 OVC049 M02/M04 A3046 RMK AO2 P0000 T10221039
KEET 162219Z AUTO 32007KT 2 1/2SM -SN BR FEW012 BKN038 OVC049 M02/M04 A3046 RMK AO2 P0000 T10221039
KEET 162201Z AUTO 33010KT 1 1/2SM -SN SCT032 OVC047 M02/M04 A3045 RMK AO2 P0000 T10171044
KEET 162153Z AUTO 33011KT 2 1/2SM -SN SCT036 OVC047 M02/M04 A3045 RMK AO2 SNB38 SLP316 P0000 T10171044
KEET 162053Z AUTO 35012KT 10SM SCT019 BKN039 OVC075 M01/M05 A3045 RMK AO2 SLP315 T10061050 53001
KEET 161953Z AUTO 33007KT 9SM OVC018 01/M03 A3043 RMK AO2 SLP307 T00111028
KEET 161853Z AUTO 31008KT 9SM OVC020 03/M02 A3043 RMK AO2 SLP309 T00281017
KEET 161838Z AUTO 31009G15KT 10SM BKN021 OVC085 03/M01 A3044 RMK AO2 T00331011
KEET 161753Z AUTO 32007KT 10SM BKN042 OVC085 04/M01 A3044 RMK AO2 SLP313 T00391011 10039 20000 58003
KEET 161653Z AUTO 31006KT 10SM OVC045 03/M01 A3047 RMK AO2 SLP320 T00281011
KEET 161553Z AUTO 33007KT 10SM SCT041 OVC055 03/M01 A3048 RMK AO2 SLP324 T00281011
KEET 161453Z AUTO 34006KT 10SM BKN033 OVC042 02/M02 A3045 RMK AO2 SLP316 T00171022 53005
KEET 161353Z AUTO 00000KT 10SM SCT030 SCT040 OVC110 02/M02 A3042 RMK AO2 SLP306 T00171017
KEET 161350Z AUTO 33003KT 10SM FEW023 SCT029 OVC110 02/M02 A3043 RMK AO2
KEET 161253Z AUTO 31006KT 10SM OVC026 01/M02 A3044 RMK AO2 SLP310 T00061022
KEET 161233Z AUTO 30005KT 10SM BKN024 00/M02 A3042 RMK AO2 T00001022
KEET 161153Z AUTO 31006KT 10SM CLR 00/M02 A3041 RMK AO2 SLP299 T00001022 10028 21017 53018
KEET 161053Z AUTO 00000KT 10SM CLR M01/M03 A3036 RMK AO2 SLP282 T10111028
KEET 160953Z AUTO 13004KT 10SM CLR 01/M02 A3034 RMK AO2 SLP277 T00111022
KEET 160853Z AUTO 15004KT 10SM CLR M01/M02 A3035 RMK AO2 SLP279 T10061022 58014
KEET 160753Z AUTO 00000KT 10SM CLR M01/M02 A3038 RMK AO2 SLP289 T10111022
KEET 160653Z AUTO 00000KT 10SM CLR M01/M02 A3038 RMK AO2 SLP288 T10061017
KEET 160553Z AUTO 00000KT 10SM CLR M01/M02 A3039 RMK AO2 SLP294 T10061017 10056 21006 401221028 50000
KEET 160453Z AUTO 00000KT 10SM CLR 00/M02 A3040 RMK AO2 SLP298 T00001017
KEET 160353Z AUTO 00000KT 10SM CLR 01/M01 A3040 RMK AO2 SLP298 T00061011
KEET 160253Z AUTO 00000KT 10SM CLR 02/M01 A3039 RMK AO2 SLP294 T00171011 53006
KEET 160153Z AUTO 00000KT 10SM CLR 02/M01 A3038 RMK AO2 SLP290 T00221006
KEET 160053Z AUTO 00000KT 10SM CLR 03/M02 A3038 RMK AO2 SLP289 T00331022
KEET 152353Z AUTO 00000KT 10SM CLR 06/M01 A3037 RMK AO2 SLP289 T00561011 10122 20056 53006
KEET 152253Z AUTO VRB03KT 10SM CLR 10/M03 A3037 RMK AO2 SLP285 T01001028
KEET 152153Z AUTO VRB05KT 10SM CLR 12/M04 A3036 RMK AO2 SLP283 T01171039
KEET 152053Z AUTO VRB03KT 10SM CLR 12/M05 A3036 RMK AO2 SLP281 T01171050 56024
KEET 151953Z AUTO 21007KT 10SM CLR 12/M06 A3037 RMK AO2 SLP285 T01171056
KEET 151853Z AUTO 18005KT 10SM CLR 10/M07 A3040 RMK AO2 SLP296 T01001067
KEET 151753Z AUTO 24007KT 10SM CLR 09/M07 A3043 RMK AO2 SLP306 T00941067 10094 21011 58014
KEET 151653Z AUTO 18009KT 10SM CLR 09/M07 A3047 RMK AO2 SLP319 T00891067
KEET 151553Z AUTO 15006KT 10SM CLR 06/M06 A3048 RMK AO2 SLP323 T00611061
KEET 151453Z AUTO 14004KT 10SM CLR 03/M06 A3047 RMK AO2 SLP322 T00331056 53002